Latest Coastal Weather Observations for Mallacoota

IDV60701

Issued at 9:31 pm EDT Monday 30 March 2015 (issued every 10 minutes, with the page automatically refreshed every 10 minutes)

About coastal observations | Map of coastal stations | Coastal observations for VIC | Marine services | Other Formats
Station Details ID: 084084 Name: MALLACOOTA Lat: -37.60 Lon: 149.73 Height: 22.0 m
Data from the previous 72 hours. | See also: Recent months at Mallacoota
Date/Time
EDT
Temp

°C
Wind Pressure Rain
since 9am
mm
Weather Cloud Vis
km
Sea
Height
m
Swell
Dir
 
Speed
knots
Gust
knots
hPa Trend Height
m
Period
s
Dir
30/09:30pm 15.1 W 5 6 1026.4 - 0.0 - - - - - - -
30/09:00pm 15.5 W 5 5 1026.3 - 0.0 - - - - - - -
30/08:30pm 15.1 W 3 4 1026.1 - 0.0 - - - - - - -
30/08:00pm 15.9 SW 4 6 1025.6 - 0.0 - - - - - - -
30/07:30pm 17.3 SW 3 4 1025.2 - 0.0 - - - - - - -
30/07:00pm 18.0 S 3 6 1024.9 - 0.0 - - - - - - -
30/06:30pm 18.6 ESE 2 5 1024.4 - 0.0 - - - - - - -
30/06:00pm 19.1 SE 5 7 1024.1 - 0.0 - - - - - - -
30/05:30pm 19.7 ESE 5 6 1023.7 - 0.0 - - - - - - -
30/05:00pm 19.9 ESE 6 7 1023.4 - 0.0 - - - - - - -
30/04:30pm 20.0 SE 6 8 1023.2 - 0.0 - - - - - - -
30/04:00pm 20.4 ESE 6 8 1023.2 - 0.0 - - - - - - -
30/03:30pm 20.2 ESE 6 8 1023.1 - 0.0 - - - - - - -
30/03:00pm 20.3 ESE 6 8 1023.0 - 0.0 - - - - - - -
30/02:30pm 20.5 ESE 6 8 1023.0 - 0.0 - - - - - - -
30/02:00pm 20.1 E 6 7 1023.1 - 0.0 - - - - - - -
30/01:30pm 20.6 ESE 6 8 1023.5 - 0.0 - - - - - - -
30/01:00pm 20.0 ESE 6 8 1023.8 - 0.0 - - - - - - -
30/12:30pm 19.8 ESE 7 9 1024.1 - 0.0 - - - - - - -
30/12:00pm 19.4 E 7 9 1024.1 - 0.0 - - - - - - -
30/11:30am 20.5 ENE 6 8 1024.4 - 0.0 - - - - - - -
30/11:00am 20.6 N 9 12 1024.6 - 0.0 - - - - - - -
30/10:30am 19.3 NNW 6 9 1024.8 - 0.0 - - - - - - -
30/10:00am 18.0 NNW 5 8 1024.9 - 0.0 - - - - - - -
30/09:30am 16.0 NW 6 9 1024.8 - 0.0 - - - - - - -
30/09:00am 14.4 NW 6 8 1024.6 - 0.0 - - - - - - -
30/08:30am 13.0 WNW 6 8 1024.5 - 0.0 - - - - - - -
30/08:00am 11.6 WNW 7 8 1024.1 - 0.0 - - - - - - -
30/07:30am 11.0 WNW 6 8 1023.8 - 0.0 - - - - - - -
30/07:00am 10.9 WNW 6 9 1023.6 - 0.0 - - - - - - -
30/06:30am 10.8 WNW 6 9 1023.2 - 0.0 - - - - - - -
30/06:00am 11.0 WNW 6 9 1023.1 - 0.0 - - - - - - -
30/05:30am 11.1 WNW 6 8 1023.0 - 0.0 - - - - - - -
30/05:00am 11.3 WNW 7 9 1022.9 - 0.0 - - - - - - -
30/04:30am 11.3 NW 6 7 1022.9 - 0.0 - - - - - - -
30/04:00am 11.6 WNW 6 8 1023.1 - 0.0 - - - - - - -
30/03:30am 11.7 WNW 7 8 1023.1 - 0.0 - - - - - - -
30/03:00am 11.9 WNW 6 7 1023.3 - 0.0 - - - - - - -
30/02:30am 12.2 WNW 6 8 1023.6 - 0.0 - - - - - - -
30/02:00am 12.3 WNW 6 7 1023.7 - 0.0 - - - - - - -
30/01:30am 12.7 WNW 6 9 1023.7 - 0.0 - - - - - - -
30/01:00am 12.9 WNW 6 7 1023.7 - 0.0 - - - - - - -
30/12:30am 13.2 WNW 6 7 1023.7 - 0.0 - - - - - - -
30/12:00am 13.5 WNW 6 7 1023.9 - 0.0 - - - - - - -
 
Date/Time
EDT
Temp

°C
Wind Pressure Rain
since 9am
mm
Weather Cloud Vis
km
Sea
Height
m
Swell
Dir
 
Speed
knots
Gust
knots
hPa Trend Height
m
Period
s
Dir
29/11:30pm 13.6 WNW 6 7 1024.0 - 0.0 - - - - - - -
29/11:00pm 13.8 W 6 7 1024.1 - 0.0 - - - - - - -
29/10:30pm 13.6 W 5 7 1024.3 - 0.0 - - - - - - -
29/10:00pm 13.9 W 5 6 1024.2 - 0.0 - - - - - - -
29/09:30pm 13.7 WNW 3 5 1023.9 - 0.0 - - - - - - -
29/09:00pm 14.1 W 5 6 1023.4 - 0.0 - - - - - - -
29/08:30pm 14.7 WSW 5 6 1023.1 - 0.0 - - - - - - -
29/08:00pm 14.7 SW 4 5 1022.7 - 0.0 - - - - - - -
29/07:30pm 15.0 SW 4 6 1022.2 - 0.0 - - - - - - -
29/07:00pm 15.9 S 2 3 1021.8 - 0.0 - - - - - - -
29/06:30pm 17.6 SE 2 4 1021.4 - 0.0 - - - - - - -
29/06:00pm 18.2 S 6 7 1021.1 - 0.0 - - - - - - -
29/05:30pm 18.5 S 8 10 1020.9 - 0.0 - - - - - - -
29/05:00pm 18.7 S 9 11 1020.8 - 0.0 - - - - - - -
29/04:30pm 18.8 S 8 10 1020.9 - 0.0 - - - - - - -
29/04:00pm 19.4 SSE 5 7 1021.0 - 0.0 - - - - - - -
29/03:30pm 20.0 SE 5 8 1021.1 - 0.0 - - - - - - -
29/03:00pm 19.3 SE 7 8 1021.0 - 0.0 - - - - - - -
29/02:30pm 19.2 SE 7 8 1021.3 - 0.0 - - - - - - -
29/02:00pm 19.3 SE 6 8 1021.4 - 0.0 - - - - - - -
29/01:30pm 19.0 ESE 6 7 1021.8 - 0.0 - - - - - - -
29/01:00pm 18.6 SE 6 8 1022.3 - 0.0 - - - - - - -
29/12:30pm 19.3 SE 5 7 1022.6 - 0.0 - - - - - - -
29/12:00pm 18.6 E 6 7 1022.5 - 0.0 - - - - - - -
29/11:30am 17.8 S 5 7 1022.8 - 0.0 - - - - - - -
29/11:00am 17.3 S 7 9 1023.1 - 0.0 - - - - - - -
29/10:30am 17.7 SSW 5 8 1023.3 - 0.0 - - - - - - -
29/10:00am 16.6 WSW 5 7 1023.1 - 0.0 - - - - - - -
29/09:30am 14.9 WNW 4 6 1023.0 - 0.0 - - - - - - -
29/09:00am 13.0 WNW 6 7 1022.6 - 0.0 - - - - - - -
29/08:30am 11.3 WNW 6 7 1022.1 - 0.0 - - - - - - -
29/08:00am 10.4 WNW 7 9 1021.8 - 0.0 - - - - - - -
29/07:30am 8.8 WNW 7 9 1021.6 - 0.0 - - - - - - -
29/07:00am 8.3 WNW 5 7 1021.3 - 0.0 - - - - - - -
29/06:30am 8.4 WNW 6 7 1020.9 - 0.0 - - - - - - -
29/06:00am 8.8 WNW 6 8 1020.6 - 0.0 - - - - - - -
29/05:30am 9.0 WNW 7 9 1020.7 - 0.0 - - - - - - -
29/05:00am 9.5 WNW 7 8 1020.5 - 0.0 - - - - - - -
29/04:30am 9.8 NW 7 9 1020.5 - 0.0 - - - - - - -
29/04:00am 9.8 NW 7 9 1020.6 - 0.0 - - - - - - -
29/03:30am 9.8 NW 7 9 1020.9 - 0.0 - - - - - - -
29/03:00am 10.2 WNW 7 9 1021.2 - 0.0 - - - - - - -
29/02:30am 10.0 NW 7 9 1021.6 - 0.0 - - - - - - -
29/02:00am 9.9 WNW 6 8 1021.9 - 0.0 - - - - - - -
29/01:30am 10.3 WNW 6 8 1022.1 - 0.0 - - - - - - -
29/01:00am 10.3 WNW 6 7 1022.3 - 0.0 - - - - - - -
29/12:30am 10.6 WNW 5 7 1022.4 - 0.0 - - - - - - -
29/12:00am 11.0 WNW 7 9 1022.8 - 0.0 - - - - - - -
 
Date/Time
EDT
Temp

°C
Wind Pressure Rain
since 9am
mm
Weather Cloud Vis
km
Sea
Height
m
Swell
Dir
 
Speed
knots
Gust
knots
hPa Trend Height
m
Period
s
Dir
28/11:30pm 10.7 WNW 6 7 1022.9 - 0.0 - - - - - - -
28/11:00pm 11.1 WNW 6 7 1023.0 - 0.0 - - - - - - -
28/10:30pm 11.1 WNW 5 7 1023.3 - 0.0 - - - - - - -
28/10:00pm 11.3 NW 5 6 1023.4 - 0.0 - - - - - - -
28/09:30pm 11.5 NW 5 6 1023.4 - 0.0 - - - - - - -
28/09:00pm 12.0 WNW 5 6 1023.2 - 0.0 - - - - - - -
28/08:30pm 12.7 NW 5 7 1023.0 - 0.0 - - - - - - -
28/08:00pm 12.9 WNW 4 5 1023.0 - 0.0 - - - - - - -
28/07:30pm 13.5 W 4 5 1022.5 - 0.0 - - - - - - -
28/07:00pm 15.1 WSW 4 6 1022.3 - 0.0 - - - - - - -
28/06:30pm 16.1 SW 7 12 1022.2 - 0.0 - - - - - - -
28/06:00pm 16.8 SSW 9 14 1021.8 - 0.0 - - - - - - -
28/05:30pm 17.6 SSW 9 14 1021.8 - 0.0 - - - - - - -
28/05:00pm 18.2 SSW 10 15 1021.7 - 0.0 - - - - - - -
28/04:30pm 18.3 SSW 11 16 1021.8 - 0.0 - - - - - - -
28/04:00pm 18.9 SSW 9 13 1021.7 - 0.0 - - - - - - -
28/03:30pm 19.3 SW 11 17 1021.9 - 0.0 - - - - - - -
28/03:00pm 19.8 WSW 10 16 1021.8 - 0.0 - - - - - - -
28/02:30pm 19.4 WSW 11 17 1022.0 - 0.0 - - - - - - -
28/02:00pm 19.2 SW 12 19 1022.1 - 0.0 - - - - - - -
28/01:30pm 20.1 SW 9 15 1022.4 - 0.0 - - - - - - -
28/01:00pm 19.3 WSW 9 15 1022.8 - 0.0 - - - - - - -
28/12:30pm 19.0 SW 10 22 1023.1 - 0.0 - - - - - - -
28/12:00pm 17.3 SW 11 16 1023.4 - 0.0 - - - - - - -
28/11:30am 16.9 WSW 10 18 1023.5 - 0.0 - - - - - - -
28/11:00am 16.6 WSW 7 13 1023.6 - 0.0 - - - - - - -
28/10:30am 15.6 WSW 8 13 1023.6 - 0.0 - - - - - - -
28/10:00am 15.0 W 7 12 1023.5 - 0.0 - - - - - - -
28/09:30am 14.3 W 10 15 1023.2 - 0.0 - - - - - - -
28/09:00am 14.0 W 9 15 1022.9 - 2.6 - - - - - - -
28/08:30am 13.4 W 9 17 1022.5 - 2.6 - - - - - - -
28/08:00am 13.2 W 9 15 1022.4 - 2.6 - - - - - - -
28/07:30am 13.1 W 9 15 1022.0 - 2.6 - - - - - - -
28/07:00am 13.0 W 9 15 1021.6 - 2.6 - - - - - - -
28/06:30am 12.8 W 8 14 1021.4 - 2.6 - - - - - - -
28/06:00am 12.3 W 7 11 1021.2 - 2.6 - - - - - - -
28/05:30am 12.1 W 8 12 1021.1 - 2.6 - - - - - - -
28/05:00am 11.9 W 5 9 1020.8 - 2.6 - - - - - - -
28/04:30am 11.9 WSW 6 9 1020.8 - 2.2 - - - - - - -
28/04:00am 12.1 WSW 7 14 1020.8 - 1.6 - - - - - - -
28/03:30am 12.5 W 11 18 1020.5 - 0.6 - - - - - - -
28/03:00am 13.0 W 11 21 1020.4 - 0.2 - - - - - - -
28/02:30am 13.8 W 10 17 1020.4 - 0.2 - - - - - - -
28/02:00am 13.7 W 12 21 1020.0 - 0.2 - - - - - - -
28/01:30am 13.5 W 10 21 1020.0 - 0.2 - - - - - - -
28/01:00am 13.1 W 12 20 1020.0 - 0.2 - - - - - - -
28/12:30am 13.1 W 11 21 1019.9 - 0.2 - - - - - - -
28/12:00am 13.3 W 10 17 1019.7 - 0.2 - - - - - - -
 
Date/Time
EDT
Temp

°C
Wind Pressure Rain
since 9am
mm
Weather Cloud Vis
km
Sea
Height
m
Swell
Dir
 
Speed
knots
Gust
knots
hPa Trend Height
m
Period
s
Dir
27/11:30pm 13.2 W 8 13 1019.9 - 0.0 - - - - - - -
27/11:00pm 13.5 WSW 10 18 1019.7 - 0.0 - - - - - - -
27/10:30pm 13.8 W 9 14 1019.6 - 0.0 - - - - - - -
27/10:00pm 13.7 W 10 17 1019.5 - 0.0 - - - - - - -

Other Formats:

Comma delimited format used in spreadsheet applications
http://www.bom.gov.au/fwo/IDV60701/IDV60701.94935.axf

JavaScript Object Notation format (JSON) in row-major order
http://www.bom.gov.au/fwo/IDV60701/IDV60701.94935.json